createdAt,value
2019-03-16T00:05:44.215Z,9.80
2019-03-16T00:10:47.601Z,9.80
2019-03-16T00:20:54.643Z,9.70
2019-03-16T00:25:58.371Z,9.70
2019-03-16T00:41:07.986Z,9.60
2019-03-16T00:46:11.654Z,9.60
2019-03-16T01:01:21.424Z,9.50
2019-03-16T01:16:33.103Z,9.40
2019-03-16T01:21:36.855Z,9.40
2019-03-16T01:26:40.237Z,9.30
2019-03-16T01:31:43.634Z,9.30
2019-03-16T02:12:09.325Z,9.10
2019-03-16T02:22:15.791Z,9.00
2019-03-16T02:27:19.491Z,9.00
2019-03-16T02:32:22.883Z,9.00
2019-03-16T02:37:26.680Z,9.00
2019-03-16T02:57:39.914Z,8.90
2019-03-16T03:02:43.548Z,8.90
2019-03-16T03:17:53.336Z,8.80
2019-03-16T03:28:00.098Z,8.70
2019-03-16T03:33:03.508Z,8.70
2019-03-16T03:38:07.477Z,8.70
2019-03-16T03:48:13.943Z,8.70
2019-03-16T03:58:20.718Z,8.70
2019-03-16T04:08:27.471Z,8.80
2019-03-16T04:18:34.360Z,8.70
2019-03-16T04:28:40.825Z,8.70
2019-03-16T04:33:44.198Z,8.80
2019-03-16T04:48:54.307Z,8.80
2019-03-16T04:53:57.691Z,8.90
2019-03-16T04:59:01.333Z,8.80
2019-03-16T05:04:05.023Z,8.80
2019-03-16T05:09:08.793Z,8.90
2019-03-16T05:14:12.422Z,8.90
2019-03-16T05:19:15.959Z,8.90
2019-03-16T05:44:32.780Z,8.90
2019-03-16T05:49:36.179Z,8.90
2019-03-16T06:09:49.868Z,9.00
2019-03-16T06:14:53.501Z,9.00
2019-03-16T06:25:00.384Z,9.00
2019-03-16T06:35:08.411Z,9.10
2019-03-16T06:40:12.041Z,9.10
2019-03-16T06:45:15.658Z,9.10
2019-03-16T06:55:22.139Z,9.30
2019-03-16T07:00:25.547Z,9.40
2019-03-16T07:10:33.785Z,9.50
2019-03-16T07:15:37.499Z,9.60
2019-03-16T07:25:44.210Z,9.70
2019-03-16T07:35:51.019Z,9.70
2019-03-16T07:40:54.609Z,9.70
2019-03-16T07:56:04.504Z,9.90
2019-03-16T08:06:11.476Z,10.20
2019-03-16T08:11:14.991Z,10.20
2019-03-16T08:16:18.671Z,10.30
2019-03-16T08:31:29.440Z,10.50
2019-03-16T08:36:32.844Z,10.50
2019-03-16T08:41:36.242Z,10.60
2019-03-16T08:46:39.884Z,10.60
2019-03-16T08:51:43.551Z,10.60
2019-03-16T09:01:50.098Z,10.80
2019-03-16T09:17:01.819Z,11.50
2019-03-16T09:42:18.115Z,11.30
2019-03-16T09:52:24.838Z,11.50
2019-03-16T10:02:34.397Z,11.70
2019-03-16T10:07:38.042Z,11.70
2019-03-16T10:17:44.514Z,12.00
2019-03-16T10:27:51.031Z,12.40
2019-03-16T10:32:54.723Z,12.50
2019-03-16T11:03:15.062Z,12.40
2019-03-16T11:13:21.530Z,12.30
2019-03-16T11:23:28.365Z,12.30
2019-03-16T11:33:35.392Z,12.30
2019-03-16T11:48:45.535Z,12.30
2019-03-16T12:19:05.743Z,12.60
2019-03-16T12:24:09.392Z,12.60
2019-03-16T12:49:25.946Z,13.00
2019-03-16T12:54:29.409Z,12.80
2019-03-16T13:09:39.060Z,12.50
2019-03-16T13:14:42.462Z,12.50
2019-03-16T13:40:00.784Z,12.10
2019-03-16T13:45:05.728Z,12.00
2019-03-16T13:50:12.483Z,12.00
2019-03-16T13:55:16.444Z,12.00
2019-03-16T14:15:33.940Z,11.90
2019-03-16T14:35:49.083Z,12.10
2019-03-16T14:40:52.498Z,12.10
2019-03-16T14:56:02.731Z,12.00
2019-03-16T15:11:12.986Z,12.00
2019-03-16T15:31:25.907Z,12.10
2019-03-16T15:51:39.699Z,12.10
2019-03-16T15:56:43.105Z,12.10
2019-03-16T16:21:59.875Z,12.00
2019-03-16T16:27:03.580Z,11.90
2019-03-16T16:32:07.023Z,11.90
2019-03-16T17:02:26.663Z,11.80
2019-03-16T17:27:42.955Z,11.70
2019-03-16T17:32:46.367Z,11.60
2019-03-16T17:42:53.416Z,11.60
2019-03-16T17:52:59.930Z,11.50
2019-03-16T17:58:03.325Z,11.40
2019-03-16T18:03:06.740Z,11.40
2019-03-16T18:08:10.378Z,11.30
2019-03-16T18:18:16.882Z,11.20
2019-03-16T18:28:23.374Z,11.20
2019-03-16T18:53:40.088Z,10.80
2019-03-16T18:58:43.494Z,10.60
2019-03-16T19:08:50.302Z,10.30
2019-03-16T19:13:53.823Z,10.20
2019-03-16T19:18:57.475Z,10.10
2019-03-16T19:34:07.408Z,9.90
2019-03-16T19:44:14.126Z,9.80
2019-03-16T19:49:17.771Z,9.70
2019-03-16T19:54:21.426Z,9.60
2019-03-16T20:14:36.490Z,9.50
2019-03-16T20:44:56.556Z,9.20
2019-03-16T20:50:00.361Z,9.20
2019-03-16T20:55:05.079Z,9.20
2019-03-16T21:05:18.495Z,9.20
2019-03-16T21:20:28.534Z,9.20
2019-03-16T21:35:38.513Z,9.20
2019-03-16T21:40:41.911Z,9.20
2019-03-16T21:45:45.309Z,9.20
2019-03-16T21:50:48.979Z,9.20
2019-03-16T21:55:52.382Z,9.20
2019-03-16T22:11:02.259Z,9.00
2019-03-16T22:41:40.628Z,9.20
2019-03-16T22:46:44.260Z,9.30
2019-03-16T22:56:51.212Z,9.50
2019-03-16T23:01:54.614Z,9.60
2019-03-16T23:12:01.574Z,9.70
2019-03-16T23:22:09.127Z,9.80
2019-03-16T23:27:12.522Z,9.90
2019-03-16T23:32:16.243Z,9.90
2019-03-16T23:37:19.678Z,10.00
2019-03-16T23:52:29.234Z,10.20
2019-03-16T23:57:32.639Z,10.20
